sensor_id;sensor_type;location;lat;lon;timestamp;P1;durP1;ratioP1;P2;durP2;ratioP2
22656;SDS011;11495;55.610;12.100;2022-08-30T00:00:38;1.17;;;0.77;;
22656;SDS011;11495;55.610;12.100;2022-08-30T00:03:22;1.75;;;0.62;;
22656;SDS011;11495;55.610;12.100;2022-08-30T00:05:48;1.48;;;0.73;;
22656;SDS011;11495;55.610;12.100;2022-08-30T00:08:14;0.95;;;0.70;;
22656;SDS011;11495;55.610;12.100;2022-08-30T00:10:50;0.75;;;0.60;;
22656;SDS011;11495;55.610;12.100;2022-08-30T00:13:15;1.05;;;0.60;;
22656;SDS011;11495;55.610;12.100;2022-08-30T00:15:42;0.82;;;0.50;;
22656;SDS011;11495;55.610;12.100;2022-08-30T00:18:09;1.85;;;0.82;;
22656;SDS011;11495;55.610;12.100;2022-08-30T00:23:08;0.85;;;0.60;;
22656;SDS011;11495;55.610;12.100;2022-08-30T00:25:33;1.25;;;0.68;;
22656;SDS011;11495;55.610;12.100;2022-08-30T00:27:58;0.90;;;0.68;;
22656;SDS011;11495;55.610;12.100;2022-08-30T00:30:24;0.98;;;0.82;;
22656;SDS011;11495;55.610;12.100;2022-08-30T00:32:51;0.50;;;0.40;;
22656;SDS011;11495;55.610;12.100;2022-08-30T00:35:18;0.50;;;0.50;;
22656;SDS011;11495;55.610;12.100;2022-08-30T00:37:44;0.60;;;0.60;;
22656;SDS011;11495;55.610;12.100;2022-08-30T00:40:11;2.22;;;0.60;;
22656;SDS011;11495;55.610;12.100;2022-08-30T00:42:39;2.15;;;0.90;;
22656;SDS011;11495;55.610;12.100;2022-08-30T00:45:09;1.25;;;0.50;;
22656;SDS011;11495;55.610;12.100;2022-08-30T00:47:35;0.88;;;0.43;;
22656;SDS011;11495;55.610;12.100;2022-08-30T00:50:01;0.50;;;0.50;;
22656;SDS011;11495;55.610;12.100;2022-08-30T00:52:27;0.40;;;0.40;;
22656;SDS011;11495;55.610;12.100;2022-08-30T00:54:52;0.80;;;0.68;;
22656;SDS011;11495;55.610;12.100;2022-08-30T00:57:18;0.95;;;0.50;;
22656;SDS011;11495;55.610;12.100;2022-08-30T00:59:44;0.68;;;0.68;;
22656;SDS011;11495;55.610;12.100;2022-08-30T01:02:12;0.77;;;0.50;;
22656;SDS011;11495;55.610;12.100;2022-08-30T01:04:38;1.90;;;1.05;;
22656;SDS011;11495;55.610;12.100;2022-08-30T01:07:06;2.20;;;0.60;;
22656;SDS011;11495;55.610;12.100;2022-08-30T01:09:32;0.75;;;0.60;;
22656;SDS011;11495;55.610;12.100;2022-08-30T01:11:59;1.27;;;0.62;;
22656;SDS011;11495;55.610;12.100;2022-08-30T01:14:25;0.60;;;0.50;;
22656;SDS011;11495;55.610;12.100;2022-08-30T01:16:52;0.62;;;0.52;;
22656;SDS011;11495;55.610;12.100;2022-08-30T01:19:37;0.50;;;0.50;;
22656;SDS011;11495;55.610;12.100;2022-08-30T01:22:32;0.88;;;0.40;;
22656;SDS011;11495;55.610;12.100;2022-08-30T01:25:06;0.47;;;0.47;;
22656;SDS011;11495;55.610;12.100;2022-08-30T01:30:09;1.45;;;0.73;;
22656;SDS011;11495;55.610;12.100;2022-08-30T01:32:41;1.30;;;0.75;;
22656;SDS011;11495;55.610;12.100;2022-08-30T01:35:10;0.62;;;0.40;;
22656;SDS011;11495;55.610;12.100;2022-08-30T01:37:37;1.35;;;0.80;;
22656;SDS011;11495;55.610;12.100;2022-08-30T01:40:03;3.05;;;0.85;;
22656;SDS011;11495;55.610;12.100;2022-08-30T01:42:31;1.92;;;0.60;;
22656;SDS011;11495;55.610;12.100;2022-08-30T01:44:57;0.75;;;0.60;;
22656;SDS011;11495;55.610;12.100;2022-08-30T01:47:22;1.40;;;0.90;;
22656;SDS011;11495;55.610;12.100;2022-08-30T01:49:48;1.08;;;0.60;;
22656;SDS011;11495;55.610;12.100;2022-08-30T01:52:14;2.35;;;0.70;;
22656;SDS011;11495;55.610;12.100;2022-08-30T01:54:45;2.17;;;0.47;;
22656;SDS011;11495;55.610;12.100;2022-08-30T01:57:12;0.62;;;0.60;;
22656;SDS011;11495;55.610;12.100;2022-08-30T01:59:41;2.95;;;0.73;;
22656;SDS011;11495;55.610;12.100;2022-08-30T02:04:54;0.80;;;0.80;;
22656;SDS011;11495;55.610;12.100;2022-08-30T02:07:21;0.70;;;0.70;;
22656;SDS011;11495;55.610;12.100;2022-08-30T02:09:49;0.45;;;0.45;;
22656;SDS011;11495;55.610;12.100;2022-08-30T02:12:15;1.73;;;0.80;;
22656;SDS011;11495;55.610;12.100;2022-08-30T02:14:41;0.70;;;0.70;;
22656;SDS011;11495;55.610;12.100;2022-08-30T02:17:07;0.52;;;0.50;;
22656;SDS011;11495;55.610;12.100;2022-08-30T02:19:34;0.40;;;0.40;;
22656;SDS011;11495;55.610;12.100;2022-08-30T02:22:00;2.05;;;0.70;;
22656;SDS011;11495;55.610;12.100;2022-08-30T02:24:26;0.82;;;0.73;;
22656;SDS011;11495;55.610;12.100;2022-08-30T02:26:52;3.53;;;0.62;;
22656;SDS011;11495;55.610;12.100;2022-08-30T02:29:18;0.80;;;0.60;;
22656;SDS011;11495;55.610;12.100;2022-08-30T02:31:45;0.75;;;0.60;;
22656;SDS011;11495;55.610;12.100;2022-08-30T02:34:10;0.45;;;0.45;;
22656;SDS011;11495;55.610;12.100;2022-08-30T02:36:39;1.25;;;0.68;;
22656;SDS011;11495;55.610;12.100;2022-08-30T02:39:07;0.88;;;0.77;;
22656;SDS011;11495;55.610;12.100;2022-08-30T02:41:34;0.60;;;0.60;;
22656;SDS011;11495;55.610;12.100;2022-08-30T02:43:59;0.50;;;0.50;;
22656;SDS011;11495;55.610;12.100;2022-08-30T02:46:26;0.62;;;0.55;;
22656;SDS011;11495;55.610;12.100;2022-08-30T02:48:51;0.50;;;0.50;;
22656;SDS011;11495;55.610;12.100;2022-08-30T02:51:17;2.00;;;0.45;;
22656;SDS011;11495;55.610;12.100;2022-08-30T02:53:42;0.40;;;0.40;;
22656;SDS011;11495;55.610;12.100;2022-08-30T02:56:09;0.50;;;0.43;;
22656;SDS011;11495;55.610;12.100;2022-08-30T02:58:36;2.45;;;0.85;;
22656;SDS011;11495;55.610;12.100;2022-08-30T03:01:02;0.90;;;0.60;;
22656;SDS011;11495;55.610;12.100;2022-08-30T03:03:29;0.93;;;0.70;;
22656;SDS011;11495;55.610;12.100;2022-08-30T03:08:42;0.93;;;0.70;;
22656;SDS011;11495;55.610;12.100;2022-08-30T03:11:08;1.12;;;0.50;;
22656;SDS011;11495;55.610;12.100;2022-08-30T03:13:34;0.98;;;0.55;;
22656;SDS011;11495;55.610;12.100;2022-08-30T03:15:59;0.80;;;0.60;;
22656;SDS011;11495;55.610;12.100;2022-08-30T03:18:35;0.57;;;0.55;;
22656;SDS011;11495;55.610;12.100;2022-08-30T03:21:01;0.90;;;0.60;;
22656;SDS011;11495;55.610;12.100;2022-08-30T03:23:28;3.17;;;0.82;;
22656;SDS011;11495;55.610;12.100;2022-08-30T03:25:53;0.50;;;0.50;;
22656;SDS011;11495;55.610;12.100;2022-08-30T03:28:19;0.70;;;0.60;;
22656;SDS011;11495;55.610;12.100;2022-08-30T03:30:45;2.00;;;0.60;;
22656;SDS011;11495;55.610;12.100;2022-08-30T03:33:15;0.80;;;0.50;;
22656;SDS011;11495;55.610;12.100;2022-08-30T03:35:40;0.40;;;0.40;;
22656;SDS011;11495;55.610;12.100;2022-08-30T03:38:06;0.90;;;0.62;;
22656;SDS011;11495;55.610;12.100;2022-08-30T03:40:31;0.60;;;0.50;;
22656;SDS011;11495;55.610;12.100;2022-08-30T03:42:56;1.40;;;0.68;;
22656;SDS011;11495;55.610;12.100;2022-08-30T03:45:23;0.75;;;0.55;;
22656;SDS011;11495;55.610;12.100;2022-08-30T03:47:48;0.65;;;0.62;;
22656;SDS011;11495;55.610;12.100;2022-08-30T03:50:14;1.37;;;0.70;;
22656;SDS011;11495;55.610;12.100;2022-08-30T03:52:40;1.42;;;0.57;;
22656;SDS011;11495;55.610;12.100;2022-08-30T03:55:05;3.53;;;1.00;;
22656;SDS011;11495;55.610;12.100;2022-08-30T03:57:31;1.58;;;0.75;;
22656;SDS011;11495;55.610;12.100;2022-08-30T03:59:57;4.10;;;0.60;;
22656;SDS011;11495;55.610;12.100;2022-08-30T04:02:23;2.00;;;1.02;;
22656;SDS011;11495;55.610;12.100;2022-08-30T04:04:48;0.75;;;0.62;;
22656;SDS011;11495;55.610;12.100;2022-08-30T04:07:13;1.20;;;0.75;;
22656;SDS011;11495;55.610;12.100;2022-08-30T04:09:39;1.50;;;0.60;;
22656;SDS011;11495;55.610;12.100;2022-08-30T04:12:04;1.65;;;0.85;;
22656;SDS011;11495;55.610;12.100;2022-08-30T04:14:33;0.47;;;0.47;;
22656;SDS011;11495;55.610;12.100;2022-08-30T04:17:01;0.40;;;0.40;;
22656;SDS011;11495;55.610;12.100;2022-08-30T04:19:29;1.00;;;0.60;;
22656;SDS011;11495;55.610;12.100;2022-08-30T04:21:57;0.50;;;0.50;;
22656;SDS011;11495;55.610;12.100;2022-08-30T04:24:23;0.52;;;0.52;;
22656;SDS011;11495;55.610;12.100;2022-08-30T04:26:48;0.65;;;0.50;;
22656;SDS011;11495;55.610;12.100;2022-08-30T04:29:13;0.62;;;0.50;;
22656;SDS011;11495;55.610;12.100;2022-08-30T04:31:41;0.50;;;0.50;;
22656;SDS011;11495;55.610;12.100;2022-08-30T04:34:11;0.43;;;0.40;;
22656;SDS011;11495;55.610;12.100;2022-08-30T04:36:37;0.57;;;0.52;;
22656;SDS011;11495;55.610;12.100;2022-08-30T04:39:03;1.27;;;0.40;;
22656;SDS011;11495;55.610;12.100;2022-08-30T04:41:29;0.70;;;0.55;;
22656;SDS011;11495;55.610;12.100;2022-08-30T04:43:54;0.68;;;0.57;;
22656;SDS011;11495;55.610;12.100;2022-08-30T04:46:20;0.70;;;0.50;;
22656;SDS011;11495;55.610;12.100;2022-08-30T04:48:45;1.52;;;0.70;;
22656;SDS011;11495;55.610;12.100;2022-08-30T04:51:12;0.82;;;0.60;;
22656;SDS011;11495;55.610;12.100;2022-08-30T04:53:40;3.87;;;1.05;;
22656;SDS011;11495;55.610;12.100;2022-08-30T04:56:07;4.12;;;0.60;;
22656;SDS011;11495;55.610;12.100;2022-08-30T04:58:34;0.88;;;0.68;;
22656;SDS011;11495;55.610;12.100;2022-08-30T05:00:59;2.70;;;0.80;;
22656;SDS011;11495;55.610;12.100;2022-08-30T05:03:25;2.97;;;0.98;;
22656;SDS011;11495;55.610;12.100;2022-08-30T05:05:50;1.80;;;0.80;;
22656;SDS011;11495;55.610;12.100;2022-08-30T05:08:18;1.33;;;0.95;;
22656;SDS011;11495;55.610;12.100;2022-08-30T05:10:46;0.47;;;0.45;;
22656;SDS011;11495;55.610;12.100;2022-08-30T05:13:14;1.73;;;0.57;;
22656;SDS011;11495;55.610;12.100;2022-08-30T05:15:40;0.50;;;0.50;;
22656;SDS011;11495;55.610;12.100;2022-08-30T05:18:06;1.25;;;0.45;;
22656;SDS011;11495;55.610;12.100;2022-08-30T05:20:33;2.53;;;0.68;;
22656;SDS011;11495;55.610;12.100;2022-08-30T05:23:00;2.70;;;0.82;;
22656;SDS011;11495;55.610;12.100;2022-08-30T05:25:31;1.05;;;0.52;;
22656;SDS011;11495;55.610;12.100;2022-08-30T05:27:58;0.70;;;0.60;;
22656;SDS011;11495;55.610;12.100;2022-08-30T05:30:24;2.87;;;0.90;;
22656;SDS011;11495;55.610;12.100;2022-08-30T05:32:51;1.15;;;0.68;;
22656;SDS011;11495;55.610;12.100;2022-08-30T05:35:18;0.60;;;0.50;;
22656;SDS011;11495;55.610;12.100;2022-08-30T05:37:44;1.65;;;0.60;;
22656;SDS011;11495;55.610;12.100;2022-08-30T05:40:11;1.10;;;0.55;;
22656;SDS011;11495;55.610;12.100;2022-08-30T05:42:37;0.80;;;0.40;;
22656;SDS011;11495;55.610;12.100;2022-08-30T05:45:06;0.60;;;0.60;;
22656;SDS011;11495;55.610;12.100;2022-08-30T05:47:32;1.20;;;0.57;;
22656;SDS011;11495;55.610;12.100;2022-08-30T05:49:58;0.80;;;0.45;;
22656;SDS011;11495;55.610;12.100;2022-08-30T05:52:23;1.42;;;0.62;;
22656;SDS011;11495;55.610;12.100;2022-08-30T05:54:52;0.43;;;0.40;;
22656;SDS011;11495;55.610;12.100;2022-08-30T05:57:20;5.85;;;0.62;;
22656;SDS011;11495;55.610;12.100;2022-08-30T05:59:46;0.60;;;0.47;;
22656;SDS011;11495;55.610;12.100;2022-08-30T06:02:11;1.58;;;0.40;;
22656;SDS011;11495;55.610;12.100;2022-08-30T06:04:36;0.68;;;0.50;;
22656;SDS011;11495;55.610;12.100;2022-08-30T06:07:02;0.50;;;0.47;;
22656;SDS011;11495;55.610;12.100;2022-08-30T06:09:28;0.57;;;0.40;;
22656;SDS011;11495;55.610;12.100;2022-08-30T06:11:53;2.03;;;0.47;;
22656;SDS011;11495;55.610;12.100;2022-08-30T06:14:19;0.95;;;0.60;;
22656;SDS011;11495;55.610;12.100;2022-08-30T06:16:44;1.37;;;0.50;;
22656;SDS011;11495;55.610;12.100;2022-08-30T06:19:10;2.37;;;0.93;;
22656;SDS011;11495;55.610;12.100;2022-08-30T06:21:37;2.15;;;1.40;;
22656;SDS011;11495;55.610;12.100;2022-08-30T06:24:04;4.10;;;1.80;;
22656;SDS011;11495;55.610;12.100;2022-08-30T06:26:34;4.45;;;1.37;;
22656;SDS011;11495;55.610;12.100;2022-08-30T06:29:02;1.67;;;0.80;;
22656;SDS011;11495;55.610;12.100;2022-08-30T06:31:27;3.25;;;0.73;;
22656;SDS011;11495;55.610;12.100;2022-08-30T06:33:53;1.00;;;0.90;;
22656;SDS011;11495;55.610;12.100;2022-08-30T06:36:20;4.90;;;2.67;;
22656;SDS011;11495;55.610;12.100;2022-08-30T06:38:54;7.47;;;3.97;;
22656;SDS011;11495;55.610;12.100;2022-08-30T06:43:51;4.57;;;2.17;;
22656;SDS011;11495;55.610;12.100;2022-08-30T06:46:18;3.62;;;1.80;;
22656;SDS011;11495;55.610;12.100;2022-08-30T06:48:46;1.08;;;0.95;;
22656;SDS011;11495;55.610;12.100;2022-08-30T06:51:12;2.60;;;1.08;;
22656;SDS011;11495;55.610;12.100;2022-08-30T06:53:38;1.58;;;0.80;;
22656;SDS011;11495;55.610;12.100;2022-08-30T06:56:05;2.40;;;0.65;;
22656;SDS011;11495;55.610;12.100;2022-08-30T06:58:33;2.42;;;0.40;;
22656;SDS011;11495;55.610;12.100;2022-08-30T07:01:00;1.37;;;0.30;;
22656;SDS011;11495;55.610;12.100;2022-08-30T07:03:25;1.37;;;0.40;;
22656;SDS011;11495;55.610;12.100;2022-08-30T07:05:51;0.55;;;0.30;;
22656;SDS011;11495;55.610;12.100;2022-08-30T07:08:17;1.08;;;0.40;;
22656;SDS011;11495;55.610;12.100;2022-08-30T07:10:43;2.95;;;0.40;;
22656;SDS011;11495;55.610;12.100;2022-08-30T07:13:09;0.30;;;0.30;;
22656;SDS011;11495;55.610;12.100;2022-08-30T07:15:35;1.15;;;0.35;;
22656;SDS011;11495;55.610;12.100;2022-08-30T07:18:00;0.20;;;0.20;;
22656;SDS011;11495;55.610;12.100;2022-08-30T07:20:45;0.37;;;0.20;;
22656;SDS011;11495;55.610;12.100;2022-08-30T07:23:10;0.20;;;0.20;;
22656;SDS011;11495;55.610;12.100;2022-08-30T07:25:37;0.20;;;0.20;;
22656;SDS011;11495;55.610;12.100;2022-08-30T07:28:04;0.47;;;0.20;;
22656;SDS011;11495;55.610;12.100;2022-08-30T07:30:33;0.55;;;0.30;;
22656;SDS011;11495;55.610;12.100;2022-08-30T07:32:59;0.82;;;0.30;;
22656;SDS011;11495;55.610;12.100;2022-08-30T07:35:24;0.20;;;0.20;;
22656;SDS011;11495;55.610;12.100;2022-08-30T07:37:50;0.40;;;0.40;;
22656;SDS011;11495;55.610;12.100;2022-08-30T07:40:15;0.30;;;0.30;;
22656;SDS011;11495;55.610;12.100;2022-08-30T07:42:41;0.95;;;0.20;;
22656;SDS011;11495;55.610;12.100;2022-08-30T07:45:07;0.75;;;0.45;;
22656;SDS011;11495;55.610;12.100;2022-08-30T07:47:33;0.30;;;0.28;;
22656;SDS011;11495;55.610;12.100;2022-08-30T07:49:59;4.50;;;0.50;;
22656;SDS011;11495;55.610;12.100;2022-08-30T07:52:24;2.95;;;0.52;;
22656;SDS011;11495;55.610;12.100;2022-08-30T07:54:52;0.60;;;0.43;;
22656;SDS011;11495;55.610;12.100;2022-08-30T07:57:18;0.22;;;0.22;;
22656;SDS011;11495;55.610;12.100;2022-08-30T07:59:44;0.80;;;0.20;;
22656;SDS011;11495;55.610;12.100;2022-08-30T08:02:09;0.62;;;0.30;;
22656;SDS011;11495;55.610;12.100;2022-08-30T08:04:34;2.55;;;0.40;;
22656;SDS011;11495;55.610;12.100;2022-08-30T08:07:00;4.28;;;0.35;;
22656;SDS011;11495;55.610;12.100;2022-08-30T08:09:26;0.47;;;0.20;;
22656;SDS011;11495;55.610;12.100;2022-08-30T08:11:51;0.57;;;0.40;;
22656;SDS011;11495;55.610;12.100;2022-08-30T08:14:17;0.57;;;0.30;;
22656;SDS011;11495;55.610;12.100;2022-08-30T08:16:42;1.55;;;0.40;;
22656;SDS011;11495;55.610;12.100;2022-08-30T08:19:09;2.05;;;0.40;;
22656;SDS011;11495;55.610;12.100;2022-08-30T08:21:34;1.05;;;0.40;;
22656;SDS011;11495;55.610;12.100;2022-08-30T08:24:01;2.53;;;0.20;;
22656;SDS011;11495;55.610;12.100;2022-08-30T08:26:27;1.30;;;0.30;;
22656;SDS011;11495;55.610;12.100;2022-08-30T08:28:52;3.62;;;0.30;;
22656;SDS011;11495;55.610;12.100;2022-08-30T08:31:22;0.20;;;0.20;;
22656;SDS011;11495;55.610;12.100;2022-08-30T08:33:48;1.17;;;0.28;;
22656;SDS011;11495;55.610;12.100;2022-08-30T08:36:14;2.90;;;0.30;;
22656;SDS011;11495;55.610;12.100;2022-08-30T08:38:40;0.25;;;0.25;;
22656;SDS011;11495;55.610;12.100;2022-08-30T08:44:11;0.37;;;0.20;;
22656;SDS011;11495;55.610;12.100;2022-08-30T08:49:27;0.20;;;0.20;;
22656;SDS011;11495;55.610;12.100;2022-08-30T08:51:52;0.62;;;0.47;;
22656;SDS011;11495;55.610;12.100;2022-08-30T08:54:49;1.55;;;0.40;;
22656;SDS011;11495;55.610;12.100;2022-08-30T08:57:22;0.47;;;0.30;;
22656;SDS011;11495;55.610;12.100;2022-08-30T08:59:48;0.62;;;0.25;;
22656;SDS011;11495;55.610;12.100;2022-08-30T09:02:28;5.65;;;0.43;;
22656;SDS011;11495;55.610;12.100;2022-08-30T09:05:05;2.08;;;0.40;;
22656;SDS011;11495;55.610;12.100;2022-08-30T09:07:34;0.98;;;0.40;;
22656;SDS011;11495;55.610;12.100;2022-08-30T09:10:03;0.73;;;0.43;;
22656;SDS011;11495;55.610;12.100;2022-08-30T09:12:29;0.20;;;0.20;;
22656;SDS011;11495;55.610;12.100;2022-08-30T09:15:03;0.70;;;0.30;;
22656;SDS011;11495;55.610;12.100;2022-08-30T09:18:00;3.42;;;0.57;;
22656;SDS011;11495;55.610;12.100;2022-08-30T09:20:32;0.30;;;0.30;;
22656;SDS011;11495;55.610;12.100;2022-08-30T09:23:10;0.73;;;0.40;;
22656;SDS011;11495;55.610;12.100;2022-08-30T09:28:22;1.15;;;0.40;;
22656;SDS011;11495;55.610;12.100;2022-08-30T09:33:54;0.20;;;0.20;;
22656;SDS011;11495;55.610;12.100;2022-08-30T09:36:25;0.30;;;0.30;;
22656;SDS011;11495;55.610;12.100;2022-08-30T09:38:57;5.07;;;0.60;;
22656;SDS011;11495;55.610;12.100;2022-08-30T09:41:36;1.85;;;0.43;;
22656;SDS011;11495;55.610;12.100;2022-08-30T09:44:06;3.33;;;0.70;;
22656;SDS011;11495;55.610;12.100;2022-08-30T09:46:50;0.50;;;0.50;;
22656;SDS011;11495;55.610;12.100;2022-08-30T09:49:28;0.60;;;0.37;;
22656;SDS011;11495;55.610;12.100;2022-08-30T09:52:25;1.25;;;0.40;;
22656;SDS011;11495;55.610;12.100;2022-08-30T09:55:09;1.05;;;0.32;;
22656;SDS011;11495;55.610;12.100;2022-08-30T10:00:26;4.12;;;0.40;;
22656;SDS011;11495;55.610;12.100;2022-08-30T10:03:16;5.05;;;0.80;;
22656;SDS011;11495;55.610;12.100;2022-08-30T10:08:43;0.30;;;0.30;;
22656;SDS011;11495;55.610;12.100;2022-08-30T10:19:23;0.35;;;0.28;;
22656;SDS011;11495;55.610;12.100;2022-08-30T10:22:22;0.43;;;0.30;;
22656;SDS011;11495;55.610;12.100;2022-08-30T10:24:56;6.07;;;0.40;;
22656;SDS011;11495;55.610;12.100;2022-08-30T10:27:31;1.60;;;0.35;;
22656;SDS011;11495;55.610;12.100;2022-08-30T10:30:20;2.87;;;0.37;;
22656;SDS011;11495;55.610;12.100;2022-08-30T10:32:49;0.30;;;0.30;;
22656;SDS011;11495;55.610;12.100;2022-08-30T10:35:28;0.30;;;0.30;;
22656;SDS011;11495;55.610;12.100;2022-08-30T10:40:43;1.75;;;0.30;;
22656;SDS011;11495;55.610;12.100;2022-08-30T10:43:46;0.45;;;0.45;;
22656;SDS011;11495;55.610;12.100;2022-08-30T10:48:52;1.75;;;0.50;;
22656;SDS011;11495;55.610;12.100;2022-08-30T10:54:10;1.95;;;0.45;;
22656;SDS011;11495;55.610;12.100;2022-08-30T10:56:42;0.30;;;0.30;;
22656;SDS011;11495;55.610;12.100;2022-08-30T10:59:11;0.60;;;0.60;;
22656;SDS011;11495;55.610;12.100;2022-08-30T11:13:12;0.40;;;0.40;;
22656;SDS011;11495;55.610;12.100;2022-08-30T11:18:47;0.40;;;0.40;;
22656;SDS011;11495;55.610;12.100;2022-08-30T11:21:16;1.48;;;0.40;;
22656;SDS011;11495;55.610;12.100;2022-08-30T11:29:14;1.00;;;0.40;;
22656;SDS011;11495;55.610;12.100;2022-08-30T11:31:51;3.05;;;0.60;;
22656;SDS011;11495;55.610;12.100;2022-08-30T11:39:56;2.92;;;0.50;;
22656;SDS011;11495;55.610;12.100;2022-08-30T11:42:25;0.30;;;0.30;;
22656;SDS011;11495;55.610;12.100;2022-08-30T11:47:59;2.50;;;0.50;;
22656;SDS011;11495;55.610;12.100;2022-08-30T11:50:56;0.20;;;0.20;;
22656;SDS011;11495;55.610;12.100;2022-08-30T11:53:28;0.30;;;0.30;;
22656;SDS011;11495;55.610;12.100;2022-08-30T11:56:27;0.30;;;0.30;;
22656;SDS011;11495;55.610;12.100;2022-08-30T12:01:51;5.68;;;0.60;;
22656;SDS011;11495;55.610;12.100;2022-08-30T12:11:54;0.50;;;0.40;;
22656;SDS011;11495;55.610;12.100;2022-08-30T12:17:17;3.62;;;1.35;;
22656;SDS011;11495;55.610;12.100;2022-08-30T12:20:27;1.98;;;0.45;;
22656;SDS011;11495;55.610;12.100;2022-08-30T12:22:54;0.45;;;0.40;;
22656;SDS011;11495;55.610;12.100;2022-08-30T12:25:23;0.50;;;0.40;;
22656;SDS011;11495;55.610;12.100;2022-08-30T12:28:06;2.05;;;0.40;;
22656;SDS011;11495;55.610;12.100;2022-08-30T12:30:36;0.40;;;0.40;;
22656;SDS011;11495;55.610;12.100;2022-08-30T12:33:04;0.50;;;0.40;;
22656;SDS011;11495;55.610;12.100;2022-08-30T12:35:33;0.30;;;0.30;;
22656;SDS011;11495;55.610;12.100;2022-08-30T12:38:03;0.37;;;0.30;;
22656;SDS011;11495;55.610;12.100;2022-08-30T12:40:31;1.15;;;0.60;;
22656;SDS011;11495;55.610;12.100;2022-08-30T12:43:15;0.65;;;0.30;;
22656;SDS011;11495;55.610;12.100;2022-08-30T12:45:49;0.32;;;0.32;;
22656;SDS011;11495;55.610;12.100;2022-08-30T12:48:16;0.60;;;0.30;;
22656;SDS011;11495;55.610;12.100;2022-08-30T12:53:16;0.20;;;0.20;;
22656;SDS011;11495;55.610;12.100;2022-08-30T12:56:13;0.62;;;0.50;;
22656;SDS011;11495;55.610;12.100;2022-08-30T13:06:52;0.43;;;0.40;;
22656;SDS011;11495;55.610;12.100;2022-08-30T13:09:23;0.20;;;0.20;;
22656;SDS011;11495;55.610;12.100;2022-08-30T13:12:01;0.28;;;0.28;;
22656;SDS011;11495;55.610;12.100;2022-08-30T13:14:33;0.47;;;0.43;;
22656;SDS011;11495;55.610;12.100;2022-08-30T13:19:42;0.50;;;0.50;;
22656;SDS011;11495;55.610;12.100;2022-08-30T13:22:26;0.32;;;0.32;;
22656;SDS011;11495;55.610;12.100;2022-08-30T13:24:55;0.40;;;0.40;;
22656;SDS011;11495;55.610;12.100;2022-08-30T13:27:21;0.30;;;0.30;;
22656;SDS011;11495;55.610;12.100;2022-08-30T13:29:46;0.55;;;0.50;;
22656;SDS011;11495;55.610;12.100;2022-08-30T13:32:12;1.85;;;0.50;;
22656;SDS011;11495;55.610;12.100;2022-08-30T13:34:39;0.28;;;0.28;;
22656;SDS011;11495;55.610;12.100;2022-08-30T13:37:05;0.30;;;0.30;;
22656;SDS011;11495;55.610;12.100;2022-08-30T13:39:33;0.43;;;0.28;;
22656;SDS011;11495;55.610;12.100;2022-08-30T13:41:59;0.85;;;0.40;;
22656;SDS011;11495;55.610;12.100;2022-08-30T13:44:24;0.80;;;0.40;;
22656;SDS011;11495;55.610;12.100;2022-08-30T13:46:50;0.40;;;0.40;;
22656;SDS011;11495;55.610;12.100;2022-08-30T13:49:19;1.23;;;0.40;;
22656;SDS011;11495;55.610;12.100;2022-08-30T13:51:55;0.57;;;0.40;;
22656;SDS011;11495;55.610;12.100;2022-08-30T13:54:21;0.57;;;0.47;;
22656;SDS011;11495;55.610;12.100;2022-08-30T13:56:47;1.08;;;0.47;;
22656;SDS011;11495;55.610;12.100;2022-08-30T13:59:14;0.40;;;0.40;;
22656;SDS011;11495;55.610;12.100;2022-08-30T14:01:40;3.53;;;0.60;;
22656;SDS011;11495;55.610;12.100;2022-08-30T14:04:05;1.08;;;0.50;;
22656;SDS011;11495;55.610;12.100;2022-08-30T14:06:30;0.37;;;0.37;;
22656;SDS011;11495;55.610;12.100;2022-08-30T14:08:56;0.60;;;0.40;;
22656;SDS011;11495;55.610;12.100;2022-08-30T14:11:21;0.40;;;0.40;;
22656;SDS011;11495;55.610;12.100;2022-08-30T14:13:47;1.95;;;0.45;;
22656;SDS011;11495;55.610;12.100;2022-08-30T14:16:13;1.20;;;0.50;;
22656;SDS011;11495;55.610;12.100;2022-08-30T14:18:38;2.78;;;0.37;;
22656;SDS011;11495;55.610;12.100;2022-08-30T14:21:03;0.62;;;0.62;;
22656;SDS011;11495;55.610;12.100;2022-08-30T14:23:29;0.37;;;0.35;;
22656;SDS011;11495;55.610;12.100;2022-08-30T14:25:55;1.20;;;0.47;;
22656;SDS011;11495;55.610;12.100;2022-08-30T14:28:24;0.40;;;0.40;;
22656;SDS011;11495;55.610;12.100;2022-08-30T14:30:52;3.05;;;0.60;;
22656;SDS011;11495;55.610;12.100;2022-08-30T14:33:18;0.68;;;0.60;;
22656;SDS011;11495;55.610;12.100;2022-08-30T14:35:43;1.05;;;0.70;;
22656;SDS011;11495;55.610;12.100;2022-08-30T14:38:09;0.40;;;0.40;;
22656;SDS011;11495;55.610;12.100;2022-08-30T14:40:34;0.82;;;0.40;;
22656;SDS011;11495;55.610;12.100;2022-08-30T14:43:00;0.30;;;0.30;;
22656;SDS011;11495;55.610;12.100;2022-08-30T14:45:25;0.88;;;0.45;;
22656;SDS011;11495;55.610;12.100;2022-08-30T14:47:50;0.57;;;0.50;;
22656;SDS011;11495;55.610;12.100;2022-08-30T14:50:16;0.68;;;0.50;;
22656;SDS011;11495;55.610;12.100;2022-08-30T14:52:41;1.77;;;0.40;;
22656;SDS011;11495;55.610;12.100;2022-08-30T14:55:07;1.83;;;0.45;;
22656;SDS011;11495;55.610;12.100;2022-08-30T14:57:36;0.50;;;0.50;;
22656;SDS011;11495;55.610;12.100;2022-08-30T15:00:03;0.50;;;0.50;;
22656;SDS011;11495;55.610;12.100;2022-08-30T15:02:30;0.57;;;0.45;;
22656;SDS011;11495;55.610;12.100;2022-08-30T15:04:55;1.20;;;0.70;;
22656;SDS011;11495;55.610;12.100;2022-08-30T15:07:21;0.40;;;0.40;;
22656;SDS011;11495;55.610;12.100;2022-08-30T15:09:47;0.45;;;0.45;;
22656;SDS011;11495;55.610;12.100;2022-08-30T15:12:12;0.30;;;0.30;;
22656;SDS011;11495;55.610;12.100;2022-08-30T15:14:37;0.20;;;0.20;;
22656;SDS011;11495;55.610;12.100;2022-08-30T15:17:03;0.50;;;0.47;;
22656;SDS011;11495;55.610;12.100;2022-08-30T15:19:29;1.55;;;0.40;;
22656;SDS011;11495;55.610;12.100;2022-08-30T15:21:57;1.00;;;0.40;;
22656;SDS011;11495;55.610;12.100;2022-08-30T15:24:28;0.47;;;0.40;;
22656;SDS011;11495;55.610;12.100;2022-08-30T15:26:54;0.37;;;0.37;;
22656;SDS011;11495;55.610;12.100;2022-08-30T15:29:20;0.68;;;0.47;;
22656;SDS011;11495;55.610;12.100;2022-08-30T15:31:47;0.98;;;0.40;;
22656;SDS011;11495;55.610;12.100;2022-08-30T15:34:13;0.40;;;0.40;;
22656;SDS011;11495;55.610;12.100;2022-08-30T15:36:42;0.30;;;0.30;;
22656;SDS011;11495;55.610;12.100;2022-08-30T15:39:09;2.50;;;0.30;;
22656;SDS011;11495;55.610;12.100;2022-08-30T15:41:35;0.47;;;0.47;;
22656;SDS011;11495;55.610;12.100;2022-08-30T15:44:01;0.40;;;0.40;;
22656;SDS011;11495;55.610;12.100;2022-08-30T15:46:28;0.85;;;0.60;;
22656;SDS011;11495;55.610;12.100;2022-08-30T15:49:00;0.30;;;0.30;;
22656;SDS011;11495;55.610;12.100;2022-08-30T15:51:28;0.50;;;0.50;;
22656;SDS011;11495;55.610;12.100;2022-08-30T15:53:54;0.40;;;0.37;;
22656;SDS011;11495;55.610;12.100;2022-08-30T15:56:20;0.43;;;0.43;;
22656;SDS011;11495;55.610;12.100;2022-08-30T15:58:45;0.43;;;0.37;;
22656;SDS011;11495;55.610;12.100;2022-08-30T16:01:11;0.90;;;0.60;;
22656;SDS011;11495;55.610;12.100;2022-08-30T16:03:38;1.50;;;0.50;;
22656;SDS011;11495;55.610;12.100;2022-08-30T16:06:13;0.75;;;0.50;;
22656;SDS011;11495;55.610;12.100;2022-08-30T16:08:40;0.43;;;0.40;;
22656;SDS011;11495;55.610;12.100;2022-08-30T16:11:06;0.30;;;0.30;;
22656;SDS011;11495;55.610;12.100;2022-08-30T16:13:33;1.10;;;0.60;;
22656;SDS011;11495;55.610;12.100;2022-08-30T16:15:59;0.30;;;0.30;;
22656;SDS011;11495;55.610;12.100;2022-08-30T16:18:28;0.30;;;0.30;;
22656;SDS011;11495;55.610;12.100;2022-08-30T16:21:30;0.50;;;0.50;;
22656;SDS011;11495;55.610;12.100;2022-08-30T16:23:52;0.37;;;0.30;;